createdAt,value
2022-11-16T00:01:42.340Z,7.80
2022-11-16T00:04:11.892Z,7.80
2022-11-16T00:06:39.918Z,7.90
2022-11-16T00:09:27.185Z,8.00
2022-11-16T00:11:58.890Z,8.10
2022-11-16T00:14:28.272Z,8.20
2022-11-16T00:16:56.980Z,8.30
2022-11-16T00:19:25.960Z,8.30
2022-11-16T00:21:54.313Z,8.30
2022-11-16T00:24:23.527Z,8.30
2022-11-16T00:26:52.141Z,8.40
2022-11-16T00:29:23.926Z,8.40
2022-11-16T00:31:52.559Z,8.40
2022-11-16T00:34:21.251Z,8.30
2022-11-16T00:36:49.130Z,8.20
2022-11-16T00:39:18.342Z,8.10
2022-11-16T00:41:46.259Z,8.00
2022-11-16T00:44:14.444Z,8.00
2022-11-16T00:46:43.605Z,8.00
2022-11-16T00:49:11.801Z,8.10
2022-11-16T00:51:39.861Z,8.00
2022-11-16T00:54:09.234Z,8.00
2022-11-16T00:56:37.742Z,8.00
2022-11-16T00:59:12.975Z,8.00
2022-11-16T01:01:40.974Z,8.00
2022-11-16T01:04:10.252Z,8.00
2022-11-16T01:06:38.135Z,8.00
2022-11-16T01:09:06.669Z,8.10
2022-11-16T01:11:51.881Z,8.10
2022-11-16T01:14:19.683Z,8.10
2022-11-16T01:16:50.236Z,8.20
2022-11-16T01:19:19.404Z,8.40
2022-11-16T01:21:47.195Z,8.50
2022-11-16T01:24:15.177Z,8.70
2022-11-16T01:26:43.058Z,8.90
2022-11-16T01:29:11.005Z,8.90
2022-11-16T01:31:38.825Z,9.00
2022-11-16T01:34:06.621Z,9.10
2022-11-16T01:36:36.740Z,9.10
2022-11-16T01:39:05.669Z,9.20
2022-11-16T01:41:33.455Z,9.20
2022-11-16T01:44:03.373Z,9.20
2022-11-16T01:46:31.746Z,9.30
2022-11-16T01:49:09.595Z,9.40
2022-11-16T01:51:40.826Z,9.40
2022-11-16T01:54:13.386Z,9.40
2022-11-16T01:56:45.060Z,9.40
2022-11-16T01:59:14.366Z,9.50
2022-11-16T02:01:42.997Z,9.50
2022-11-16T02:04:12.057Z,9.50
2022-11-16T02:06:58.836Z,9.50
2022-11-16T02:09:55.185Z,9.50
2022-11-16T02:12:53.151Z,9.50
2022-11-16T02:15:27.800Z,9.50
2022-11-16T02:18:10.092Z,9.50
2022-11-16T02:21:02.090Z,9.50
2022-11-16T02:24:04.344Z,9.50
2022-11-16T02:26:48.342Z,9.50
2022-11-16T02:29:22.453Z,9.50
2022-11-16T02:31:56.390Z,9.50
2022-11-16T02:34:25.608Z,9.50
2022-11-16T02:36:57.322Z,9.50
2022-11-16T02:39:28.373Z,9.50
2022-11-16T02:41:57.643Z,9.50
2022-11-16T02:44:30.566Z,9.50
2022-11-16T02:47:02.998Z,9.50
2022-11-16T02:49:34.483Z,9.50
2022-11-16T02:52:02.853Z,9.50
2022-11-16T02:54:30.654Z,9.50
2022-11-16T02:57:20.546Z,9.40
2022-11-16T02:59:53.474Z,9.40
2022-11-16T03:02:28.055Z,9.50
2022-11-16T03:05:01.516Z,9.50
2022-11-16T03:07:34.303Z,9.50
2022-11-16T03:10:03.052Z,9.40
2022-11-16T03:12:35.102Z,9.40
2022-11-16T03:15:07.784Z,9.30
2022-11-16T03:17:41.177Z,9.30
2022-11-16T03:20:13.654Z,9.30
2022-11-16T03:22:45.077Z,9.30
2022-11-16T03:25:14.964Z,9.30
2022-11-16T03:27:52.253Z,9.30
2022-11-16T03:30:24.125Z,9.40
2022-11-16T03:32:57.692Z,9.30
2022-11-16T03:35:28.946Z,9.30
2022-11-16T03:37:59.348Z,9.20
2022-11-16T03:40:31.471Z,9.20
2022-11-16T03:43:01.494Z,9.20
2022-11-16T03:45:32.169Z,9.10
2022-11-16T03:48:00.902Z,9.10
2022-11-16T03:50:28.906Z,9.00
2022-11-16T03:52:56.768Z,9.00
2022-11-16T03:55:24.642Z,8.90
2022-11-16T03:57:52.405Z,8.90
2022-11-16T04:00:20.375Z,8.90
2022-11-16T04:02:49.513Z,8.90
2022-11-16T04:05:34.848Z,8.90
2022-11-16T04:08:20.433Z,8.90
2022-11-16T04:11:05.948Z,8.90
2022-11-16T04:13:52.708Z,8.90
2022-11-16T04:16:38.486Z,9.00
2022-11-16T04:19:27.449Z,9.00
2022-11-16T04:22:15.723Z,9.10
2022-11-16T04:24:47.662Z,9.10
2022-11-16T04:27:33.899Z,9.10
2022-11-16T04:30:03.469Z,9.20
2022-11-16T04:32:48.976Z,9.20
2022-11-16T04:35:35.634Z,9.10
2022-11-16T04:38:03.458Z,9.10
2022-11-16T04:40:31.225Z,9.10
2022-11-16T04:43:00.453Z,9.00
2022-11-16T04:45:46.348Z,9.00
2022-11-16T04:48:15.830Z,8.90
2022-11-16T04:50:45.320Z,8.90
2022-11-16T04:53:13.539Z,8.80
2022-11-16T04:55:41.313Z,8.80
2022-11-16T04:58:09.261Z,8.80
2022-11-16T05:00:37.166Z,8.80
2022-11-16T05:03:05.768Z,8.80
2022-11-16T05:05:33.618Z,8.80
2022-11-16T05:08:02.769Z,8.70
2022-11-16T05:10:30.560Z,8.70
2022-11-16T05:12:58.963Z,8.70
2022-11-16T05:15:26.779Z,8.70
2022-11-16T05:17:55.736Z,8.60
2022-11-16T05:20:41.135Z,8.60
2022-11-16T05:23:30.565Z,8.60
2022-11-16T05:25:58.351Z,8.70
2022-11-16T05:28:26.128Z,8.70
2022-11-16T05:30:53.923Z,8.70
2022-11-16T05:33:21.721Z,8.70
2022-11-16T05:35:50.680Z,8.70
2022-11-16T05:38:20.330Z,8.70
2022-11-16T05:40:48.147Z,8.70
2022-11-16T05:43:15.914Z,8.60
2022-11-16T05:45:44.240Z,8.70
2022-11-16T05:48:12.008Z,8.60
2022-11-16T05:50:42.802Z,8.60
2022-11-16T05:53:11.078Z,8.60
2022-11-16T05:55:40.237Z,8.50
2022-11-16T05:58:08.051Z,8.50
2022-11-16T06:00:35.842Z,8.50
2022-11-16T06:03:03.683Z,8.40
2022-11-16T06:05:33.265Z,8.40
2022-11-16T06:08:04.156Z,8.40
2022-11-16T06:10:32.234Z,8.30
2022-11-16T06:13:01.351Z,8.30
2022-11-16T06:15:29.240Z,8.20
2022-11-16T06:17:57.051Z,8.10
2022-11-16T06:20:25.046Z,8.10
2022-11-16T06:22:52.814Z,8.10
2022-11-16T06:25:20.636Z,8.00
2022-11-16T06:27:48.437Z,7.90
2022-11-16T06:30:18.021Z,7.90
2022-11-16T06:32:45.824Z,7.80
2022-11-16T06:35:13.646Z,7.80
2022-11-16T06:37:41.434Z,7.70
2022-11-16T06:40:10.864Z,7.70
2022-11-16T06:42:38.668Z,7.70
2022-11-16T06:45:07.298Z,7.70
2022-11-16T06:47:36.501Z,7.60
2022-11-16T06:50:04.811Z,7.60
2022-11-16T06:52:32.664Z,7.60
2022-11-16T06:55:00.492Z,7.60
2022-11-16T06:57:28.296Z,7.60
2022-11-16T06:59:56.215Z,7.60
2022-11-16T07:02:23.986Z,7.60
2022-11-16T07:04:53.134Z,7.50
2022-11-16T07:07:21.000Z,7.50
2022-11-16T07:09:48.909Z,7.50
2022-11-16T07:12:16.706Z,7.40
2022-11-16T07:14:45.393Z,7.40
2022-11-16T07:17:13.177Z,7.40
2022-11-16T07:19:41.033Z,7.40
2022-11-16T07:22:10.124Z,7.40
2022-11-16T07:24:38.886Z,7.40
2022-11-16T07:27:08.586Z,7.40
2022-11-16T07:29:36.415Z,7.50
2022-11-16T07:32:04.198Z,7.60
2022-11-16T07:34:31.962Z,7.70
2022-11-16T07:36:59.732Z,7.70
2022-11-16T07:39:28.910Z,7.80
2022-11-16T07:41:56.676Z,8.00
2022-11-16T07:44:24.442Z,8.10
2022-11-16T07:46:52.206Z,8.20
2022-11-16T07:49:20.723Z,8.30
2022-11-16T07:51:48.525Z,8.30
2022-11-16T07:54:17.002Z,8.30
2022-11-16T07:56:46.110Z,8.30
2022-11-16T07:59:13.939Z,8.40
2022-11-16T08:01:41.810Z,8.50
2022-11-16T08:04:09.628Z,8.50
2022-11-16T08:06:37.426Z,8.50
2022-11-16T08:09:05.404Z,8.50
2022-11-16T08:11:33.261Z,8.50
2022-11-16T08:14:02.419Z,8.50
2022-11-16T08:16:33.096Z,8.50
2022-11-16T08:19:01.066Z,8.50
2022-11-16T08:21:28.953Z,8.50
2022-11-16T08:23:58.709Z,8.50
2022-11-16T08:26:27.069Z,8.50
2022-11-16T08:28:57.045Z,8.50
2022-11-16T08:31:28.442Z,8.50
2022-11-16T08:33:56.940Z,8.40
2022-11-16T08:36:25.038Z,8.40
2022-11-16T08:38:53.800Z,8.40
2022-11-16T08:41:22.621Z,8.50
2022-11-16T08:43:53.094Z,8.70
2022-11-16T08:46:21.628Z,8.90
2022-11-16T08:48:50.763Z,9.20
2022-11-16T08:51:20.116Z,9.30
2022-11-16T08:53:49.292Z,9.40
2022-11-16T08:56:18.763Z,9.50
2022-11-16T08:58:47.669Z,9.60
2022-11-16T09:01:24.167Z,9.60
2022-11-16T09:03:54.313Z,9.70
2022-11-16T09:06:22.810Z,9.70
2022-11-16T09:08:50.954Z,9.80
2022-11-16T09:11:20.636Z,9.90
2022-11-16T09:13:49.661Z,10.00
2022-11-16T09:16:20.587Z,10.10
2022-11-16T09:18:49.816Z,10.20
2022-11-16T09:21:20.404Z,10.00
2022-11-16T09:23:48.710Z,10.00
2022-11-16T09:26:22.767Z,10.10
2022-11-16T09:28:56.697Z,10.20
2022-11-16T09:31:24.736Z,10.30
2022-11-16T09:33:52.541Z,10.40
2022-11-16T09:36:21.910Z,10.40
2022-11-16T09:41:57.053Z,10.50
2022-11-16T09:44:45.423Z,10.60
2022-11-16T09:47:18.601Z,10.70
2022-11-16T09:49:52.212Z,10.40
2022-11-16T09:52:27.573Z,10.60
2022-11-16T09:54:57.768Z,10.60
2022-11-16T09:57:30.183Z,10.60
2022-11-16T10:00:03.229Z,10.70
2022-11-16T10:02:35.329Z,10.60
2022-11-16T10:05:11.414Z,10.60
2022-11-16T10:07:45.904Z,10.70
2022-11-16T10:10:14.790Z,10.60
2022-11-16T10:12:49.414Z,10.40
2022-11-16T10:15:36.011Z,10.30
2022-11-16T10:18:13.414Z,10.60
2022-11-16T10:21:08.138Z,10.40
2022-11-16T10:23:51.185Z,10.20
2022-11-16T10:26:30.823Z,10.30
2022-11-16T10:29:22.435Z,10.40
2022-11-16T10:32:08.819Z,10.40
2022-11-16T10:34:46.634Z,10.50
2022-11-16T10:37:14.847Z,10.60
2022-11-16T10:39:44.355Z,10.60
2022-11-16T10:42:17.397Z,10.50
2022-11-16T10:44:47.541Z,10.60
2022-11-16T10:47:20.651Z,10.60
2022-11-16T10:49:56.812Z,10.40
2022-11-16T10:52:25.195Z,10.40
2022-11-16T10:54:54.761Z,10.40
2022-11-16T10:57:24.789Z,10.60
2022-11-16T10:59:55.621Z,10.80
2022-11-16T11:02:34.541Z,10.70
2022-11-16T11:05:07.926Z,10.50
2022-11-16T11:07:39.692Z,10.50
2022-11-16T11:10:28.500Z,10.50
2022-11-16T11:13:08.573Z,10.70
2022-11-16T11:15:36.682Z,10.90
2022-11-16T11:18:26.220Z,11.20
2022-11-16T11:21:06.751Z,11.00
2022-11-16T11:23:43.446Z,10.90
2022-11-16T11:26:34.749Z,10.90
2022-11-16T11:29:10.602Z,11.00
2022-11-16T11:31:44.962Z,11.20
2022-11-16T11:34:19.799Z,11.20
2022-11-16T11:36:51.230Z,11.20
2022-11-16T11:39:37.665Z,11.30
2022-11-16T11:42:20.852Z,11.10
2022-11-16T11:44:57.160Z,10.90
2022-11-16T11:50:22.456Z,11.10
2022-11-16T11:53:03.239Z,11.20
2022-11-16T11:55:31.079Z,11.10
2022-11-16T11:58:02.639Z,11.20
2022-11-16T12:00:39.108Z,11.30
2022-11-16T12:03:38.493Z,11.30
2022-11-16T12:06:18.745Z,11.30
2022-11-16T12:09:20.026Z,11.50
2022-11-16T12:12:04.059Z,11.40
2022-11-16T12:14:51.592Z,11.10
2022-11-16T12:17:26.908Z,11.00
2022-11-16T12:20:36.708Z,11.20
2022-11-16T12:23:30.573Z,11.30
2022-11-16T12:26:06.872Z,11.20
2022-11-16T12:28:50.891Z,11.20
2022-11-16T12:31:40.260Z,11.20
2022-11-16T12:34:15.880Z,11.20
2022-11-16T12:36:56.442Z,11.10
2022-11-16T12:39:28.543Z,11.20
2022-11-16T12:42:22.549Z,11.20
2022-11-16T12:45:14.340Z,11.20
2022-11-16T12:47:57.940Z,11.30
2022-11-16T12:50:46.288Z,11.30
2022-11-16T12:53:36.167Z,11.20
2022-11-16T12:56:13.326Z,11.30
2022-11-16T12:59:02.363Z,11.30
2022-11-16T13:01:36.602Z,11.00
2022-11-16T13:04:11.420Z,11.00
2022-11-16T13:06:43.356Z,11.00
2022-11-16T13:09:17.059Z,11.10
2022-11-16T13:11:48.901Z,11.10
2022-11-16T13:14:20.472Z,11.10
2022-11-16T13:16:49.046Z,11.10
2022-11-16T13:19:19.005Z,11.20
2022-11-16T13:21:54.746Z,11.20
2022-11-16T13:24:43.930Z,11.10
2022-11-16T13:27:22.028Z,11.00
2022-11-16T13:29:56.732Z,11.10
2022-11-16T13:32:31.429Z,11.20
2022-11-16T13:35:04.390Z,11.30
2022-11-16T13:37:46.126Z,11.40
2022-11-16T13:40:29.170Z,11.50
2022-11-16T13:43:16.690Z,11.50
2022-11-16T13:45:57.939Z,11.50
2022-11-16T13:48:30.541Z,11.50
2022-11-16T13:51:02.547Z,11.60
2022-11-16T13:56:27.360Z,11.70
2022-11-16T13:58:58.223Z,11.80
2022-11-16T14:01:26.566Z,11.90
2022-11-16T14:04:33.181Z,11.80
2022-11-16T14:07:02.512Z,11.60
2022-11-16T14:09:44.719Z,11.60
2022-11-16T14:12:58.348Z,11.50
2022-11-16T14:15:34.866Z,11.40
2022-11-16T14:18:22.792Z,11.10
2022-11-16T14:20:57.104Z,11.00
2022-11-16T14:23:54.331Z,11.00
2022-11-16T14:26:27.482Z,10.90
2022-11-16T14:29:20.035Z,10.90
2022-11-16T14:31:51.438Z,10.80
2022-11-16T14:34:21.925Z,10.70
2022-11-16T14:36:50.909Z,10.60
2022-11-16T14:39:31.270Z,10.40
2022-11-16T14:42:02.612Z,10.30
2022-11-16T14:44:34.700Z,10.20
2022-11-16T14:47:04.816Z,10.10
2022-11-16T14:49:35.574Z,10.20
2022-11-16T14:52:05.343Z,10.20
2022-11-16T14:54:39.394Z,10.20
2022-11-16T14:57:11.852Z,10.10
2022-11-16T14:59:39.688Z,10.10
2022-11-16T15:02:20.393Z,10.00
2022-11-16T15:04:48.888Z,10.00
2022-11-16T15:07:18.613Z,9.90
2022-11-16T15:09:50.374Z,9.90
2022-11-16T15:12:38.544Z,9.90
2022-11-16T15:15:13.249Z,9.70
2022-11-16T15:17:43.129Z,9.60
2022-11-16T15:20:19.607Z,9.50
2022-11-16T15:22:49.668Z,9.40
2022-11-16T15:25:30.511Z,9.30
2022-11-16T15:28:00.261Z,9.30
2022-11-16T15:30:30.572Z,9.10
2022-11-16T15:32:58.840Z,9.00
2022-11-16T15:35:30.238Z,8.90
2022-11-16T15:38:06.827Z,8.70
2022-11-16T15:40:36.769Z,8.60
2022-11-16T15:43:06.909Z,8.60
2022-11-16T15:45:35.249Z,8.60
2022-11-16T15:48:04.845Z,8.50
2022-11-16T15:50:32.826Z,8.40
2022-11-16T15:53:00.600Z,8.10
2022-11-16T15:55:34.017Z,8.00
2022-11-16T15:58:15.762Z,7.70
2022-11-16T16:00:48.127Z,7.50
2022-11-16T16:03:22.721Z,7.30
2022-11-16T16:05:50.887Z,7.10
2022-11-16T16:08:31.169Z,7.00
2022-11-16T16:11:00.781Z,7.00
2022-11-16T16:13:32.563Z,6.90
2022-11-16T16:16:20.704Z,6.80
2022-11-16T16:18:49.605Z,6.60
2022-11-16T16:21:17.814Z,6.60
2022-11-16T16:23:47.018Z,6.50
2022-11-16T16:26:15.357Z,6.40
2022-11-16T16:28:45.010Z,6.30
2022-11-16T16:31:14.355Z,6.20
2022-11-16T16:33:42.445Z,6.10
2022-11-16T16:36:13.470Z,6.00
2022-11-16T16:38:41.450Z,6.00
2022-11-16T16:41:24.313Z,5.90
2022-11-16T16:43:53.880Z,5.80
2022-11-16T16:46:21.822Z,5.70
2022-11-16T16:48:49.766Z,5.60
2022-11-16T16:51:17.578Z,5.60
2022-11-16T16:53:45.380Z,5.60
2022-11-16T16:56:16.026Z,5.50
2022-11-16T16:58:43.848Z,5.50
2022-11-16T17:01:14.016Z,5.50
2022-11-16T17:03:41.858Z,5.50
2022-11-16T17:06:09.698Z,5.50
2022-11-16T17:08:38.934Z,5.40
2022-11-16T17:11:06.784Z,5.40
2022-11-16T17:13:34.919Z,5.40
2022-11-16T17:16:06.586Z,5.40
2022-11-16T17:18:35.899Z,5.30
2022-11-16T17:21:07.312Z,5.30
2022-11-16T17:23:35.594Z,5.20
2022-11-16T17:26:05.673Z,5.20
2022-11-16T17:28:33.441Z,5.20
2022-11-16T17:31:05.193Z,5.20
2022-11-16T17:33:36.636Z,5.20
2022-11-16T17:36:05.767Z,5.30
2022-11-16T17:38:34.486Z,5.50
2022-11-16T17:41:06.944Z,5.50
2022-11-16T17:43:35.675Z,5.40
2022-11-16T17:46:07.807Z,5.30
2022-11-16T17:48:38.043Z,5.20
2022-11-16T17:51:06.529Z,5.00
2022-11-16T17:53:35.206Z,5.00
2022-11-16T17:56:03.825Z,5.10
2022-11-16T17:58:32.612Z,5.10
2022-11-16T18:01:00.557Z,5.00
2022-11-16T18:03:28.476Z,5.20
2022-11-16T18:06:04.853Z,5.40
2022-11-16T18:08:32.920Z,5.40
2022-11-16T18:11:05.316Z,5.30
2022-11-16T18:13:33.621Z,5.20
2022-11-16T18:16:06.503Z,5.50
2022-11-16T18:18:34.797Z,5.90
2022-11-16T18:21:04.060Z,6.00
2022-11-16T18:23:32.264Z,5.80
2022-11-16T18:26:00.427Z,5.80
2022-11-16T18:28:28.218Z,6.00
2022-11-16T18:31:03.934Z,5.90
2022-11-16T18:33:32.344Z,5.60
2022-11-16T18:36:00.477Z,5.40
2022-11-16T18:38:29.649Z,5.50
2022-11-16T18:41:04.797Z,5.50
2022-11-16T18:43:34.077Z,5.80
2022-11-16T18:46:02.641Z,5.90
2022-11-16T18:48:30.689Z,5.90
2022-11-16T18:50:59.452Z,6.60
2022-11-16T18:53:28.961Z,7.10
2022-11-16T18:55:58.304Z,7.20
2022-11-16T19:01:17.559Z,7.40
2022-11-16T19:03:45.399Z,7.50
2022-11-16T19:06:14.814Z,7.50
2022-11-16T19:08:44.221Z,7.50
2022-11-16T19:11:14.092Z,7.60
2022-11-16T19:13:43.314Z,7.70
2022-11-16T19:16:12.527Z,7.60
2022-11-16T19:18:40.666Z,7.60
2022-11-16T19:21:11.045Z,7.70
2022-11-16T19:23:39.303Z,7.50
2022-11-16T19:26:08.785Z,7.40
2022-11-16T19:28:37.633Z,7.30
2022-11-16T19:31:09.524Z,7.20
2022-11-16T19:33:38.161Z,7.10
2022-11-16T19:36:10.618Z,7.00
2022-11-16T19:38:38.557Z,6.90
2022-11-16T19:41:08.944Z,6.90
2022-11-16T19:43:37.225Z,6.90
2022-11-16T19:46:06.212Z,6.70
2022-11-16T19:48:34.520Z,6.60
2022-11-16T19:51:06.490Z,6.50
2022-11-16T19:53:34.824Z,6.60
2022-11-16T19:56:03.265Z,6.50
2022-11-16T19:58:32.950Z,6.20
2022-11-16T20:01:03.939Z,6.20
2022-11-16T20:03:32.862Z,6.20
2022-11-16T20:06:09.126Z,6.10
2022-11-16T20:08:37.375Z,5.90
2022-11-16T20:11:12.733Z,5.70
2022-11-16T20:13:42.908Z,5.80
2022-11-16T20:16:12.561Z,5.90
2022-11-16T20:18:41.439Z,6.30
2022-11-16T20:21:12.690Z,6.30
2022-11-16T20:23:40.441Z,6.30
2022-11-16T20:26:09.760Z,6.40
2022-11-16T20:28:38.418Z,6.50
2022-11-16T20:31:09.876Z,6.50
2022-11-16T20:33:38.053Z,6.60
2022-11-16T20:36:08.581Z,6.80
2022-11-16T20:38:37.386Z,7.10
2022-11-16T20:41:09.533Z,7.10
2022-11-16T20:43:39.195Z,7.20
2022-11-16T20:46:09.362Z,7.00
2022-11-16T20:48:38.036Z,6.90
2022-11-16T20:51:06.348Z,6.90
2022-11-16T20:53:35.372Z,6.90
2022-11-16T20:56:04.293Z,6.90
2022-11-16T20:58:32.463Z,6.70
2022-11-16T21:01:01.762Z,6.60
2022-11-16T21:03:31.046Z,6.60
2022-11-16T21:05:59.010Z,6.60
2022-11-16T21:08:27.365Z,6.50
2022-11-16T21:10:55.512Z,6.40
2022-11-16T21:13:40.865Z,6.20
2022-11-16T21:16:11.327Z,6.20
2022-11-16T21:18:41.289Z,6.50
2022-11-16T21:21:11.270Z,6.40
2022-11-16T21:23:41.006Z,6.30
2022-11-16T21:26:11.409Z,6.30
2022-11-16T21:28:39.687Z,6.30
2022-11-16T21:31:11.263Z,6.40
2022-11-16T21:33:40.708Z,6.40
2022-11-16T21:36:11.650Z,6.40
2022-11-16T21:38:39.605Z,6.60
2022-11-16T21:41:07.741Z,6.90
2022-11-16T21:43:36.583Z,7.00
2022-11-16T21:46:06.412Z,7.00
2022-11-16T21:48:34.645Z,7.30
2022-11-16T21:51:05.504Z,7.30
2022-11-16T21:53:34.351Z,7.10
2022-11-16T21:56:02.853Z,6.90
2022-11-16T21:58:30.662Z,6.60
2022-11-16T22:00:59.976Z,6.50
2022-11-16T22:03:29.634Z,6.70
2022-11-16T22:06:17.332Z,6.70
2022-11-16T22:08:47.397Z,6.50
2022-11-16T22:11:16.320Z,6.40
2022-11-16T22:13:44.747Z,6.30
2022-11-16T22:16:15.020Z,6.70
2022-11-16T22:18:43.229Z,7.00
2022-11-16T22:21:11.356Z,7.20
2022-11-16T22:23:39.789Z,7.20
2022-11-16T22:26:11.455Z,7.50
2022-11-16T22:28:39.984Z,7.70
2022-11-16T22:31:10.275Z,7.80
2022-11-16T22:33:38.622Z,7.80
2022-11-16T22:36:09.241Z,7.80
2022-11-16T22:38:40.360Z,7.90
2022-11-16T22:41:10.032Z,8.10
2022-11-16T22:43:38.932Z,8.20
2022-11-16T22:46:07.388Z,8.30
2022-11-16T22:48:37.763Z,8.30
2022-11-16T22:51:07.742Z,8.30
2022-11-16T22:53:36.202Z,8.40
2022-11-16T22:56:06.382Z,8.40
2022-11-16T22:58:35.749Z,8.40
2022-11-16T23:01:03.697Z,8.60
2022-11-16T23:03:32.401Z,8.60
2022-11-16T23:06:00.653Z,8.70
2022-11-16T23:08:28.813Z,8.80
2022-11-16T23:11:19.016Z,8.90
2022-11-16T23:14:06.176Z,8.90
2022-11-16T23:16:34.824Z,8.90
2022-11-16T23:19:02.761Z,8.80
2022-11-16T23:21:48.147Z,8.80
2022-11-16T23:24:34.131Z,8.80
2022-11-16T23:27:21.603Z,8.80
2022-11-16T23:29:51.446Z,8.70
2022-11-16T23:32:19.266Z,8.60
2022-11-16T23:34:47.091Z,8.60
2022-11-16T23:37:14.906Z,8.50
2022-11-16T23:39:42.766Z,8.40
2022-11-16T23:42:29.200Z,8.30
2022-11-16T23:44:58.402Z,8.30
2022-11-16T23:47:26.420Z,8.40
2022-11-16T23:49:54.177Z,8.40
2022-11-16T23:52:25.933Z,8.40
2022-11-16T23:54:53.757Z,8.50
2022-11-16T23:57:21.610Z,8.60
2022-11-16T23:59:49.418Z,8.80
